Time;durP1;ratioP1;P1;durP2;ratioP2;P2;SDS_P1;SDS_P2;PMS_P1;PMS_P2;Temp;Humidity;BMP_temperature;BMP_pressure;BME280_temperature;BME280_humidity;BME280_pressure;Samples;Min_cycle;Max_cycle;Signal;HPM_P1;HPM_P2
2021/05/17 00:01:19;;;;;;;1.48;1.10;;;8.90;99.90;;;;;;5058235;28;20048;-77
2021/05/17 00:03:49;;;;;;;1.73;1.40;;;9.00;99.90;;;;;;5077159;28;20123;-80
2021/05/17 00:06:18;;;;;;;1.75;0.95;;;9.00;99.90;;;;;;5075926;28;20045;-80
2021/05/17 00:08:46;;;;;;;1.77;1.20;;;9.00;99.90;;;;;;5075233;28;20087;-80
2021/05/17 00:11:13;;;;;;;1.00;1.00;;;9.00;99.90;;;;;;5075573;28;20098;-81
2021/05/17 00:13:40;;;;;;;1.35;1.10;;;9.00;99.90;;;;;;5075157;28;20119;-78
2021/05/17 00:16:07;;;;;;;1.58;1.00;;;9.00;99.90;;;;;;5057498;28;20051;-78
2021/05/17 00:18:34;;;;;;;1.98;1.27;;;9.00;99.90;;;;;;5057210;28;20098;-80
2021/05/17 00:21:01;;;;;;;1.00;0.80;;;9.10;99.90;;;;;;5075191;28;20132;-80
2021/05/17 00:23:28;;;;;;;1.13;0.80;;;9.10;99.90;;;;;;5074973;28;20055;-77
2021/05/17 00:25:55;;;;;;;3.08;1.08;;;9.00;99.90;;;;;;5075321;28;20088;-78
2021/05/17 00:28:22;;;;;;;2.65;1.10;;;9.10;99.90;;;;;;5075210;28;20084;-81
2021/05/17 00:30:49;;;;;;;3.15;0.95;;;9.10;99.90;;;;;;5079430;28;20106;-78
2021/05/17 00:33:16;;;;;;;1.00;1.00;;;9.10;99.90;;;;;;5080003;28;20139;-81
2021/05/17 00:35:43;;;;;;;2.28;1.13;;;9.10;99.90;;;;;;5058761;28;20108;-78
2021/05/17 00:38:09;;;;;;;2.13;1.10;;;9.10;99.90;;;;;;5075843;28;20079;-79
2021/05/17 00:40:37;;;;;;;2.58;0.90;;;9.10;99.90;;;;;;5057909;28;20084;-80
2021/05/17 00:43:07;;;;;;;1.20;1.10;;;9.10;99.90;;;;;;5075248;28;20048;-80
2021/05/17 00:45:34;;;;;;;0.90;0.90;;;9.00;99.90;;;;;;5087848;28;20166;-81
2021/05/17 00:48:01;;;;;;;1.70;0.95;;;9.00;99.90;;;;;;5092807;28;20044;-80
2021/05/17 00:50:28;;;;;;;1.08;0.75;;;9.00;99.90;;;;;;5082636;28;20537;-81
2021/05/17 00:52:56;;;;;;;1.67;1.13;;;9.00;99.90;;;;;;5077617;28;20493;-81
2021/05/17 00:55:26;;;;;;;2.30;1.10;;;8.90;99.90;;;;;;5059534;28;20044;-80
2021/05/17 00:57:52;;;;;;;1.60;1.13;;;8.80;99.90;;;;;;5059940;28;20128;-80
2021/05/17 01:00:27;;;;;;;2.40;1.50;;;8.60;99.90;;;;;;5077100;28;20535;-80
2021/05/17 01:02:54;;;;;;;5.30;1.10;;;8.60;99.90;;;;;;5077731;28;20055;-81
2021/05/17 01:05:21;;;;;;;1.42;1.10;;;8.50;99.90;;;;;;5076818;28;20132;-81
2021/05/17 01:07:49;;;;;;;2.38;1.30;;;8.40;99.90;;;;;;5076415;28;20524;-80
2021/05/17 01:10:19;;;;;;;5.78;1.67;;;8.40;99.90;;;;;;5057482;28;20048;-80
2021/05/17 01:12:47;;;;;;;2.85;1.55;;;8.40;99.90;;;;;;5076367;28;20083;-80
2021/05/17 01:15:15;;;;;;;2.22;1.55;;;8.30;99.90;;;;;;5075783;28;20083;-80
2021/05/17 01:17:43;;;;;;;2.75;1.88;;;8.30;99.90;;;;;;5077584;28;20435;-81
2021/05/17 01:20:12;;;;;;;4.90;2.00;;;8.20;99.90;;;;;;5058271;28;20090;-80
2021/05/17 01:25:28;;;;;;;3.88;2.20;;;8.10;99.90;;;;;;5075685;28;20136;-80
2021/05/17 01:27:56;;;;;;;6.72;2.45;;;8.00;99.90;;;;;;5075307;28;20048;-81
2021/05/17 01:30:24;;;;;;;5.22;2.15;;;8.00;99.90;;;;;;5075140;28;20416;-81
2021/05/17 01:32:52;;;;;;;6.03;1.98;;;8.10;99.90;;;;;;5057569;28;20110;-81
2021/05/17 01:35:20;;;;;;;1.85;1.20;;;8.00;99.90;;;;;;5074898;28;20131;-80
2021/05/17 01:37:48;;;;;;;4.47;1.30;;;8.00;99.90;;;;;;5056705;28;20074;-80
2021/05/17 01:40:18;;;;;;;2.13;1.35;;;8.00;99.90;;;;;;5074191;28;20550;-80
2021/05/17 01:42:46;;;;;;;1.58;1.20;;;8.10;99.90;;;;;;5074618;28;20044;-80
2021/05/17 01:45:13;;;;;;;3.55;1.42;;;8.10;99.90;;;;;;5056464;28;20055;-81
2021/05/17 01:47:41;;;;;;;1.42;1.30;;;8.10;99.90;;;;;;5056435;28;20159;-81
2021/05/17 01:50:10;;;;;;;1.25;1.20;;;8.10;99.90;;;;;;5056537;28;20102;-81
2021/05/17 01:52:38;;;;;;;1.63;1.30;;;8.00;99.90;;;;;;5073887;28;20131;-80
2021/05/17 01:55:08;;;;;;;3.45;1.15;;;8.00;99.90;;;;;;5074245;28;20052;-81
2021/05/17 01:57:35;;;;;;;2.08;0.95;;;7.90;99.90;;;;;;5056328;28;20558;-81
2021/05/17 02:00:04;;;;;;;2.00;1.00;;;7.90;99.90;;;;;;5074281;28;20044;-79
2021/05/17 02:02:31;;;;;;;0.93;0.90;;;7.80;99.90;;;;;;5073946;28;20080;-80
2021/05/17 02:04:58;;;;;;;4.38;0.93;;;7.70;99.90;;;;;;5074199;28;20467;-79
2021/05/17 02:07:25;;;;;;;1.55;0.70;;;7.70;99.90;;;;;;5055615;28;20062;-80
2021/05/17 02:09:54;;;;;;;1.67;1.10;;;7.60;99.90;;;;;;5074482;28;20135;-80
2021/05/17 02:12:22;;;;;;;2.25;1.10;;;7.60;99.90;;;;;;5074436;28;20044;-80
2021/05/17 02:14:54;;;;;;;2.97;1.13;;;7.60;99.90;;;;;;5057268;28;20088;-80
2021/05/17 02:17:23;;;;;;;1.30;1.20;;;7.60;99.90;;;;;;5074015;28;20090;-80
2021/05/17 02:19:51;;;;;;;1.33;0.98;;;7.70;99.90;;;;;;5072822;28;20500;-80
2021/05/17 02:22:19;;;;;;;1.58;1.20;;;7.70;99.90;;;;;;5055287;28;20045;-80
2021/05/17 02:24:47;;;;;;;4.05;1.20;;;7.70;99.90;;;;;;5055534;28;20049;-80
2021/05/17 02:27:17;;;;;;;1.48;1.38;;;7.70;99.90;;;;;;5073271;28;20166;-80
2021/05/17 02:29:45;;;;;;;1.20;1.10;;;7.70;99.90;;;;;;5055090;28;20102;-79
2021/05/17 02:32:22;;;;;;;2.63;1.10;;;7.70;99.90;;;;;;5074966;28;20056;-82
2021/05/17 02:34:50;;;;;;;1.05;1.05;;;7.70;99.90;;;;;;5076179;28;20044;-80
2021/05/17 02:37:17;;;;;;;0.82;0.82;;;7.60;99.90;;;;;;5058448;28;20079;-80
2021/05/17 02:39:44;;;;;;;1.75;0.85;;;7.60;99.90;;;;;;5075903;28;20048;-80
2021/05/17 02:42:17;;;;;;;2.00;0.98;;;7.50;99.90;;;;;;5075711;28;20131;-80
2021/05/17 02:44:44;;;;;;;4.68;1.10;;;7.50;99.90;;;;;;5057463;28;20145;-81
2021/05/17 02:47:11;;;;;;;0.90;0.80;;;7.50;99.90;;;;;;5075502;28;20076;-80
2021/05/17 02:49:38;;;;;;;1.25;0.85;;;7.50;99.90;;;;;;5057114;28;20091;-79
2021/05/17 02:52:06;;;;;;;2.45;1.10;;;7.40;99.90;;;;;;5056767;28;20091;-81
2021/05/17 02:54:36;;;;;;;4.30;1.42;;;7.40;99.90;;;;;;5075061;28;20083;-81
2021/05/17 02:57:07;;;;;;;1.73;1.63;;;7.40;99.90;;;;;;5074594;28;20044;-80
2021/05/17 02:59:37;;;;;;;2.92;1.88;;;7.40;99.90;;;;;;5056273;28;20507;-80
2021/05/17 03:02:08;;;;;;;1.63;1.05;;;7.40;99.90;;;;;;5075728;28;20044;-80
2021/05/17 03:04:40;;;;;;;1.88;1.25;;;7.40;99.90;;;;;;5056934;28;20090;-79
2021/05/17 03:07:10;;;;;;;3.47;1.50;;;7.50;99.90;;;;;;5075535;28;20545;-80
2021/05/17 03:09:38;;;;;;;1.00;1.00;;;7.50;99.90;;;;;;5074426;28;20274;-80
2021/05/17 03:12:09;;;;;;;1.05;0.90;;;7.40;99.90;;;;;;5073785;28;20136;-80
2021/05/17 03:14:39;;;;;;;1.48;1.23;;;7.40;99.90;;;;;;5073087;28;20059;-80
2021/05/17 03:17:09;;;;;;;2.47;1.17;;;7.40;99.90;;;;;;5055758;28;20080;-80
2021/05/17 03:19:38;;;;;;;1.38;1.15;;;7.30;99.90;;;;;;5072730;28;20045;-81
2021/05/17 03:22:07;;;;;;;2.97;1.05;;;7.30;99.90;;;;;;5073811;28;20128;-81
2021/05/17 03:24:36;;;;;;;2.45;1.30;;;7.40;99.90;;;;;;5055292;28;20508;-80
2021/05/17 03:27:24;;;;;;;1.42;1.30;;;7.40;99.90;;;;;;5073090;28;20131;-80
2021/05/17 03:29:51;;;;;;;2.40;1.42;;;7.50;99.90;;;;;;5073310;28;20095;-81
2021/05/17 03:32:19;;;;;;;1.63;1.30;;;7.60;99.90;;;;;;5055718;28;20135;-81
2021/05/17 03:34:46;;;;;;;1.45;1.25;;;7.60;99.90;;;;;;5058751;28;20475;-80
2021/05/17 03:37:13;;;;;;;3.80;1.08;;;7.70;99.90;;;;;;5077076;28;20044;-80
2021/05/17 03:39:42;;;;;;;1.30;1.30;;;7.90;99.90;;;;;;5076804;28;20040;-80
2021/05/17 03:42:09;;;;;;;1.42;1.20;;;7.90;99.90;;;;;;5059062;28;20577;-80
2021/05/17 03:44:35;;;;;;;2.47;1.45;;;8.00;99.90;;;;;;5058860;28;20086;-80
2021/05/17 03:47:02;;;;;;;1.38;1.20;;;7.90;99.90;;;;;;5076745;28;20528;-80
2021/05/17 03:49:30;;;;;;;1.42;1.33;;;7.90;99.90;;;;;;5076173;28;20045;-80
2021/05/17 03:51:57;;;;;;;1.15;1.05;;;8.00;99.90;;;;;;5058825;28;20084;-81
2021/05/17 03:54:24;;;;;;;2.10;1.10;;;8.00;99.90;;;;;;5076610;28;20127;-80
2021/05/17 03:56:51;;;;;;;1.38;1.10;;;8.10;99.90;;;;;;5075950;28;20044;-79
2021/05/17 03:59:17;;;;;;;1.75;1.65;;;8.10;99.90;;;;;;5076277;28;20041;-81
2021/05/17 04:01:45;;;;;;;3.13;1.27;;;8.20;99.90;;;;;;5058256;28;20428;-80
2021/05/17 04:04:14;;;;;;;2.20;1.83;;;8.20;99.90;;;;;;5058448;28;20080;-80
2021/05/17 04:06:49;;;;;;;1.73;1.63;;;8.10;99.90;;;;;;5076400;28;20117;-79
2021/05/17 04:14:47;;;;;;;3.55;3.28;;;8.30;99.90;;;;;;5075881;28;20140;-80
2021/05/17 04:17:14;;;;;;;4.63;4.00;;;8.40;99.90;;;;;;5077192;28;20053;-80
2021/05/17 04:19:40;;;;;;;5.75;3.25;;;8.50;99.90;;;;;;5076040;28;20465;-81
2021/05/17 04:22:07;;;;;;;3.10;2.80;;;8.50;99.90;;;;;;5076429;28;20068;-80
2021/05/17 04:24:35;;;;;;;3.33;3.03;;;8.50;99.90;;;;;;5058373;28;20040;-80
2021/05/17 04:27:01;;;;;;;4.55;3.40;;;8.60;99.90;;;;;;5058828;28;20052;-81
2021/05/17 04:29:29;;;;;;;3.30;2.55;;;8.70;99.90;;;;;;5057825;28;20084;-80
2021/05/17 04:31:56;;;;;;;6.68;3.08;;;8.60;99.90;;;;;;5076339;28;20072;-80
2021/05/17 04:34:23;;;;;;;2.95;2.17;;;8.70;99.90;;;;;;5057961;28;20529;-80
2021/05/17 04:36:49;;;;;;;4.78;2.97;;;8.60;99.90;;;;;;5058405;28;20087;-81
2021/05/17 04:39:16;;;;;;;4.55;3.80;;;8.70;99.90;;;;;;5076309;28;20098;-80
2021/05/17 04:41:43;;;;;;;5.22;4.15;;;8.80;99.90;;;;;;5075167;28;20076;-81
2021/05/17 04:44:11;;;;;;;5.35;3.95;;;8.90;99.90;;;;;;5074812;28;20258;-80
2021/05/17 04:46:37;;;;;;;6.20;5.20;;;8.90;99.90;;;;;;5075106;28;20060;-80
2021/05/17 04:49:04;;;;;;;5.65;5.07;;;8.90;99.90;;;;;;5074760;28;20048;-79
2021/05/17 04:51:31;;;;;;;5.65;5.00;;;9.10;99.90;;;;;;5075066;28;20053;-81
2021/05/17 04:53:58;;;;;;;4.25;3.95;;;9.00;99.90;;;;;;5057100;28;20052;-80
2021/05/17 04:56:25;;;;;;;3.28;3.08;;;9.00;99.90;;;;;;5056569;28;20144;-80
2021/05/17 04:58:51;;;;;;;3.63;3.13;;;9.00;99.90;;;;;;5074799;28;20438;-80
2021/05/17 05:01:18;;;;;;;3.90;3.20;;;9.00;99.90;;;;;;5074904;28;20131;-80
2021/05/17 05:03:45;;;;;;;4.57;4.20;;;9.00;99.90;;;;;;5057621;28;20070;-81
2021/05/17 05:06:11;;;;;;;8.65;6.00;;;9.20;99.90;;;;;;5074910;28;20053;-78
2021/05/17 05:08:38;;;;;;;4.18;3.88;;;10.00;99.90;;;;;;5074505;28;20048;-79
2021/05/17 05:11:05;;;;;;;3.75;3.40;;;11.10;99.90;;;;;;5076278;28;20454;-79
2021/05/17 05:13:32;;;;;;;3.20;2.42;;;11.90;99.90;;;;;;5057966;28;20048;-79
2021/05/17 05:15:59;;;;;;;1.73;1.63;;;12.00;99.90;;;;;;5057538;28;20060;-79
2021/05/17 05:18:25;;;;;;;97.05;79.28;;;11.80;99.90;;;;;;5056659;28;20045;-79
2021/05/17 05:20:52;;;;;;;16.58;14.85;;;11.40;99.90;;;;;;5056962;28;20087;-79
2021/05/17 05:23:21;;;;;;;6.78;6.18;;;11.00;99.90;;;;;;5074607;28;20102;-78
2021/05/17 05:28:30;;;;;;;3.55;1.27;;;10.90;99.90;;;;;;5074776;28;20044;-80
2021/05/17 05:33:23;;;;;;;5.72;5.30;;;11.20;99.90;;;;;;5074336;28;20086;-78
2021/05/17 05:35:50;;;;;;;2.72;1.30;;;11.50;99.90;;;;;;5074174;28;20044;-79
2021/05/17 05:38:17;;;;;;;1.05;0.82;;;11.80;99.90;;;;;;5056611;28;20048;-79
2021/05/17 05:40:44;;;;;;;1.00;0.50;;;12.60;99.90;;;;;;5074670;28;20048;-78
2021/05/17 05:43:11;;;;;;;0.50;0.50;;;15.00;99.90;;;;;;5056916;28;20129;-79
2021/05/17 05:45:48;;;;;;;0.88;0.40;;;16.90;99.90;;;;;;5056727;28;20135;-78
2021/05/17 05:48:15;;;;;;;0.50;0.20;;;17.70;99.90;;;;;;5073973;28;20512;-79
2021/05/17 05:50:46;;;;;;;2.72;0.40;;;17.20;99.90;;;;;;5073910;28;20563;-80
2021/05/17 05:53:14;;;;;;;1.67;1.33;;;16.20;99.90;;;;;;5074413;28;20424;-80
2021/05/17 05:55:43;;;;;;;2.25;0.60;;;16.50;99.90;;;;;;5073741;28;20084;-80
2021/05/17 05:58:11;;;;;;;0.73;0.73;;;16.40;99.90;;;;;;5077017;28;20136;-79
2021/05/17 06:00:37;;;;;;;6.68;0.90;;;15.70;99.90;;;;;;5057839;28;20086;-80
2021/05/17 06:03:05;;;;;;;1.50;0.77;;;15.20;99.90;;;;;;5076323;28;20057;-81
2021/05/17 06:05:33;;;;;;;1.40;1.40;;;14.90;99.90;;;;;;5058588;28;20049;-81
2021/05/17 06:08:01;;;;;;;0.63;0.47;;;16.10;99.90;;;;;;5063586;28;20124;-81
2021/05/17 06:10:28;;;;;;;0.45;0.30;;;17.20;99.90;;;;;;5068231;28;20041;-81
2021/05/17 06:12:57;;;;;;;1.23;0.43;;;17.80;99.90;;;;;;5087269;28;20564;-82
2021/05/17 06:15:25;;;;;;;1.55;1.15;;;18.00;99.90;;;;;;5068231;28;20044;-81
2021/05/17 06:17:52;;;;;;;4.68;1.00;;;18.70;99.90;;;;;;5081818;28;20106;-82
2021/05/17 06:20:19;;;;;;;8.40;7.55;;;19.70;99.90;;;;;;5055157;28;20102;-80
2021/05/17 06:22:46;;;;;;;4.75;4.35;;;20.70;99.90;;;;;;5073059;28;20441;-83
2021/05/17 06:25:14;;;;;;;3.00;0.57;;;19.60;99.90;;;;;;5055716;28;20080;-82
2021/05/17 06:27:42;;;;;;;0.95;0.40;;;18.60;99.90;;;;;;5072883;28;20543;-81
2021/05/17 06:30:11;;;;;;;4.22;0.40;;;17.70;99.90;;;;;;5073693;28;20417;-82
2021/05/17 06:32:40;;;;;;;0.85;0.57;;;17.40;99.90;;;;;;5074531;28;20110;-83
2021/05/17 06:35:09;;;;;;;2.05;0.55;;;17.30;99.90;;;;;;5074362;28;20566;-82
2021/05/17 06:37:36;;;;;;;3.05;2.72;;;16.90;99.90;;;;;;5074342;28;20052;-84
2021/05/17 06:40:05;;;;;;;9.13;8.32;;;16.50;99.90;;;;;;5074197;28;20118;-83
2021/05/17 06:42:31;;;;;;;11.35;6.82;;;16.00;99.90;;;;;;5056022;28;20135;-83
2021/05/17 06:44:58;;;;;;;18.00;2.35;;;15.90;99.90;;;;;;5056210;28;20102;-83
2021/05/17 06:47:25;;;;;;;1.15;0.50;;;15.30;99.90;;;;;;5073836;28;20092;-83
2021/05/17 06:49:52;;;;;;;3.00;0.60;;;16.10;99.90;;;;;;5056611;28;20135;-82
2021/05/17 06:52:24;;;;;;;0.60;0.60;;;17.80;99.90;;;;;;5056067;28;20099;-83
2021/05/17 06:55:02;;;;;;;3.25;1.10;;;18.00;99.90;;;;;;5074032;28;20106;-83
2021/05/17 07:00:07;;;;;;;0.50;0.50;;;17.20;99.90;;;;;;5073906;28;20045;-83
2021/05/17 07:02:35;;;;;;;1.60;1.30;;;16.60;99.90;;;;;;5055798;28;20091;-83
2021/05/17 07:05:03;;;;;;;0.40;0.40;;;16.50;99.90;;;;;;5056613;28;20049;-83
2021/05/17 07:11:33;;;;;;;0.20;0.20;;;15.90;99.90;;;;;;5056685;28;20080;-83
2021/05/17 07:13:04;;;;;;;1.10;0.40;;;15.60;99.90;;;;;;5076848;28;20106;-82
2021/05/17 07:15:31;;;;;;;2.88;0.82;;;15.60;99.90;;;;;;5059138;28;20563;-82
2021/05/17 07:17:58;;;;;;;0.55;0.43;;;15.50;99.90;;;;;;5076757;28;20060;-80
2021/05/17 07:20:32;;;;;;;0.80;0.40;;;15.50;99.90;;;;;;5075744;28;20082;-83
2021/05/17 07:25:45;;;;;;;0.38;0.38;;;15.70;99.90;;;;;;5079414;28;20103;-82
2021/05/17 07:28:11;;;;;;;2.67;0.30;;;17.70;99.90;;;;;;5062622;28;20044;-82
2021/05/17 07:30:41;;;;;;;0.50;0.20;;;18.10;99.90;;;;;;5080692;28;20550;-82
2021/05/17 07:33:08;;;;;;;8.13;0.95;;;18.60;99.90;;;;;;5079910;28;20052;-82
2021/05/17 07:35:35;;;;;;;1.60;0.28;;;18.50;99.90;;;;;;5078792;28;20088;-80
2021/05/17 07:38:02;;;;;;;4.68;0.50;;;18.40;99.90;;;;;;5078644;28;20128;-81
2021/05/17 07:40:29;;;;;;;0.50;0.30;;;17.50;99.90;;;;;;5060701;28;20113;-82
2021/05/17 07:42:56;;;;;;;4.13;0.45;;;17.20;99.90;;;;;;5078221;28;20045;-81
2021/05/17 07:45:42;;;;;;;0.50;0.20;;;16.90;99.90;;;;;;5078542;28;20045;-81
2021/05/17 07:48:11;;;;;;;0.20;0.20;;;16.50;99.90;;;;;;5078924;28;20461;-81
2021/05/17 07:50:38;;;;;;;0.20;0.20;;;16.20;99.90;;;;;;5078737;28;20091;-81
2021/05/17 07:53:05;;;;;;;1.23;0.43;;;15.70;99.90;;;;;;5078212;28;20052;-81
2021/05/17 07:55:31;;;;;;;2.20;0.40;;;15.20;99.90;;;;;;5063330;28;20118;-80
2021/05/17 07:57:58;;;;;;;6.57;1.27;;;15.10;99.90;;;;;;5063195;28;20072;-81
2021/05/17 08:00:25;;;;;;;0.82;0.38;;;14.90;99.90;;;;;;5082242;28;20049;-82
2021/05/17 08:02:52;;;;;;;4.50;0.60;;;14.80;99.90;;;;;;5081480;28;20061;-80
2021/05/17 08:05:20;;;;;;;3.65;0.52;;;14.70;99.90;;;;;;5062387;28;20048;-81
2021/05/17 08:07:46;;;;;;;4.57;0.38;;;14.70;99.90;;;;;;5062061;28;20052;-81
2021/05/17 08:10:13;;;;;;;3.40;0.40;;;15.00;99.90;;;;;;5060089;28;20417;-80
2021/05/17 08:12:40;;;;;;;0.75;0.20;;;14.80;99.90;;;;;;5060144;28;20134;-82
2021/05/17 08:15:08;;;;;;;2.92;0.70;;;15.10;99.90;;;;;;5059680;28;20083;-82
2021/05/17 08:17:35;;;;;;;1.65;0.30;;;15.70;99.90;;;;;;5058838;28;20471;-82
2021/05/17 08:20:06;;;;;;;0.43;0.28;;;15.80;99.90;;;;;;5059705;28;20496;-81
2021/05/17 08:22:34;;;;;;;3.60;0.50;;;15.90;99.90;;;;;;5077985;28;20135;-80
2021/05/17 08:25:04;;;;;;;1.95;0.17;;;16.10;99.90;;;;;;5078399;28;20048;-83
2021/05/17 08:27:30;;;;;;;2.15;0.40;;;16.30;99.90;;;;;;5077139;28;20509;-80
2021/05/17 08:29:57;;;;;;;0.52;0.17;;;16.90;99.90;;;;;;5077494;28;20091;-80
2021/05/17 08:32:24;;;;;;;0.32;0.20;;;17.90;99.90;;;;;;5077852;28;20056;-80
2021/05/17 08:34:51;;;;;;;1.15;0.13;;;19.50;99.90;;;;;;5078313;28;20048;-79
2021/05/17 08:37:18;;;;;;;4.00;0.47;;;20.50;99.90;;;;;;5078364;28;20045;-80
2021/05/17 08:39:45;;;;;;;1.60;0.25;;;21.30;99.90;;;;;;5078078;28;20075;-79
2021/05/17 08:42:28;;;;;;;0.00;0.00;;;20.90;99.90;;;;;;5078464;28;20070;-80
2021/05/17 08:44:55;;;;;;;1.48;0.45;;;20.00;97.80;;;;;;5060776;28;20280;-80
2021/05/17 08:47:22;;;;;;;0.73;0.20;;;18.90;99.90;;;;;;5077631;28;20071;-80
2021/05/17 08:49:49;;;;;;;1.38;0.10;;;18.50;99.90;;;;;;5061089;28;20080;-79
2021/05/17 08:52:16;;;;;;;1.75;0.20;;;17.50;99.90;;;;;;5059819;28;20086;-80
2021/05/17 08:54:43;;;;;;;0.85;0.30;;;17.20;99.90;;;;;;5077338;28;20135;-79
2021/05/17 08:57:10;;;;;;;0.20;0.10;;;16.90;99.90;;;;;;5075595;28;20474;-81
2021/05/17 08:59:37;;;;;;;1.40;0.10;;;16.80;99.90;;;;;;5075142;28;20049;-82
2021/05/17 09:02:03;;;;;;;5.00;0.93;;;16.80;99.90;;;;;;5075890;28;20048;-78
2021/05/17 09:04:30;;;;;;;0.82;0.20;;;16.70;99.90;;;;;;5075442;28;20048;-81
2021/05/17 09:06:58;;;;;;;0.35;0.35;;;16.90;99.90;;;;;;5076377;28;20048;-80
2021/05/17 09:09:36;;;;;;;0.15;0.08;;;19.20;99.90;;;;;;5059543;28;20056;-79
2021/05/17 09:12:09;;;;;;;0.20;0.10;;;22.50;99.60;;;;;;5077054;28;20078;-81
2021/05/17 09:14:36;;;;;;;0.50;0.13;;;23.90;90.30;;;;;;5076681;28;20465;-79
2021/05/17 09:17:07;;;;;;;1.85;0.13;;;22.70;86.10;;;;;;5076618;28;20045;-80
2021/05/17 09:19:38;;;;;;;0.35;0.20;;;21.40;88.20;;;;;;5076451;28;20040;-80
2021/05/17 09:22:16;;;;;;;2.10;0.30;;;20.00;93.70;;;;;;5076978;28;20052;-80
2021/05/17 09:25:01;;;;;;;0.85;0.28;;;18.80;98.10;;;;;;5058270;28;20519;-78
2021/05/17 09:27:30;;;;;;;0.93;0.35;;;18.00;99.90;;;;;;5057354;28;20117;-79
2021/05/17 09:30:00;;;;;;;0.73;0.30;;;18.00;99.90;;;;;;5074825;28;20083;-80
2021/05/17 09:32:30;;;;;;;1.50;0.30;;;17.80;99.90;;;;;;5075440;28;20044;-80
2021/05/17 09:35:00;;;;;;;3.90;0.45;;;17.50;99.90;;;;;;5074903;28;20056;-79
2021/05/17 09:37:40;;;;;;;0.75;0.20;;;17.00;99.90;;;;;;5057911;28;20094;-81
2021/05/17 09:40:16;;;;;;;0.60;0.38;;;16.50;99.90;;;;;;5074957;28;20076;-80
2021/05/17 09:42:43;;;;;;;0.25;0.20;;;16.30;99.90;;;;;;5057396;28;20044;-80
2021/05/17 09:45:12;;;;;;;0.90;0.30;;;16.30;99.90;;;;;;5061066;28;20052;-82
2021/05/17 09:47:42;;;;;;;4.07;0.28;;;16.70;99.90;;;;;;5079685;28;20075;-82
2021/05/17 09:50:09;;;;;;;2.00;0.35;;;17.00;99.90;;;;;;5078653;28;20083;-82
2021/05/17 09:52:37;;;;;;;1.60;0.20;;;17.10;99.90;;;;;;5079068;28;20080;-81
2021/05/17 09:55:10;;;;;;;1.48;0.35;;;16.90;99.90;;;;;;5059916;28;20052;-82
2021/05/17 09:57:46;;;;;;;0.65;0.22;;;16.40;99.90;;;;;;5077444;28;20041;-82
2021/05/17 10:00:18;;;;;;;0.57;0.20;;;15.90;99.90;;;;;;5078080;28;20459;-81
2021/05/17 10:02:51;;;;;;;0.90;0.10;;;15.30;99.90;;;;;;5079171;28;20048;-82
2021/05/17 10:05:23;;;;;;;0.90;0.22;;;14.70;99.90;;;;;;5078940;28;20072;-82
2021/05/17 10:07:57;;;;;;;2.92;0.22;;;14.40;99.90;;;;;;5078602;28;20076;-81
2021/05/17 10:10:41;;;;;;;0.43;0.10;;;14.20;99.90;;;;;;5077623;28;20056;-82
2021/05/17 10:13:08;;;;;;;0.60;0.10;;;15.40;99.90;;;;;;5077046;28;20048;-81
2021/05/17 10:15:35;;;;;;;0.20;0.20;;;18.20;99.90;;;;;;5058553;28;20489;-81
2021/05/17 10:18:14;;;;;;;0.32;0.10;;;21.10;99.90;;;;;;5076103;28;20040;-82
2021/05/17 10:20:43;;;;;;;0.63;0.20;;;21.80;99.90;;;;;;5057791;28;20109;-79
2021/05/17 10:23:13;;;;;;;4.65;0.30;;;20.80;99.90;;;;;;5058548;28;20500;-81
2021/05/17 10:25:41;;;;;;;2.47;0.60;;;20.80;99.90;;;;;;5057739;28;20044;-78
2021/05/17 10:28:15;;;;;;;2.00;0.20;;;23.10;96.80;;;;;;5075441;28;20098;-79
2021/05/17 10:30:43;;;;;;;0.35;0.00;;;25.60;81.80;;;;;;5075030;28;20178;-80
2021/05/17 10:33:19;;;;;;;6.53;0.88;;;25.30;70.60;;;;;;5057033;28;20520;-78
2021/05/17 10:35:49;;;;;;;1.00;0.17;;;23.20;78.50;;;;;;5074733;28;20103;-81
2021/05/17 10:38:23;;;;;;;0.40;0.20;;;21.50;81.80;;;;;;5074522;28;20048;-80
2021/05/17 10:41:01;;;;;;;0.45;0.08;;;19.90;93.90;;;;;;5075555;28;20070;-82
2021/05/17 10:44:01;;;;;;;3.97;0.20;;;19.10;99.80;;;;;;5060384;28;20130;-81
2021/05/17 10:46:40;;;;;;;0.52;0.20;;;18.90;99.90;;;;;;5077000;28;20083;-81
2021/05/17 10:49:30;;;;;;;0.35;0.20;;;18.90;99.90;;;;;;5077536;28;20067;-81
2021/05/17 10:52:06;;;;;;;1.42;0.50;;;18.50;99.90;;;;;;5074959;28;20509;-82
2021/05/17 10:54:42;;;;;;;0.65;0.28;;;17.80;99.90;;;;;;5074947;28;20042;-81
2021/05/17 10:57:25;;;;;;;1.00;0.30;;;17.00;99.90;;;;;;5057334;28;20040;-81
2021/05/17 11:03:13;;;;;;;1.02;0.40;;;15.60;99.90;;;;;;4993749;28;20046;-82
2021/05/17 11:05:43;;;;;;;0.98;0.40;;;15.30;99.90;;;;;;5066996;28;20048;-81
2021/05/17 11:08:12;;;;;;;1.77;0.10;;;15.20;99.90;;;;;;5058321;28;20040;-83
2021/05/17 11:10:45;;;;;;;0.40;0.10;;;15.00;99.90;;;;;;5077104;28;20397;-82
2021/05/17 11:13:17;;;;;;;0.63;0.10;;;14.90;99.90;;;;;;5056626;28;20463;-81
2021/05/17 11:15:58;;;;;;;3.20;0.10;;;15.00;99.90;;;;;;5073834;28;20497;-80
2021/05/17 11:18:40;;;;;;;0.38;0.10;;;15.00;99.90;;;;;;5094562;28;20055;-82
2021/05/17 11:21:22;;;;;;;0.82;0.20;;;14.60;99.90;;;;;;5077533;28;20047;-82
2021/05/17 11:23:55;;;;;;;4.18;0.20;;;14.20;99.90;;;;;;5095221;28;20067;-82
2021/05/17 11:26:23;;;;;;;0.20;0.20;;;13.70;99.90;;;;;;5076776;28;20040;-81
2021/05/17 11:28:50;;;;;;;0.50;0.20;;;13.50;99.90;;;;;;5094450;28;20048;-81
2021/05/17 11:31:19;;;;;;;0.40;0.20;;;13.70;99.90;;;;;;5094056;28;20461;-81
2021/05/17 11:33:50;;;;;;;1.50;0.10;;;13.70;99.90;;;;;;5097209;28;20441;-82
2021/05/17 11:36:19;;;;;;;0.10;0.10;;;13.60;99.90;;;;;;5097818;28;20393;-82
2021/05/17 11:39:19;;;;;;;0.47;0.03;;;14.00;99.90;;;;;;5097371;28;20429;-82
2021/05/17 11:41:55;;;;;;;0.10;0.10;;;14.90;99.90;;;;;;5097585;28;20040;-81
2021/05/17 11:44:27;;;;;;;0.00;0.00;;;15.80;99.90;;;;;;5078577;28;20044;-82
2021/05/17 11:46:55;;;;;;;0.47;0.25;;;16.70;99.90;;;;;;5096052;28;20068;-81
2021/05/17 11:49:24;;;;;;;1.20;0.10;;;17.30;99.90;;;;;;5095830;28;20411;-80
2021/05/17 11:51:56;;;;;;;8.52;0.80;;;17.90;99.90;;;;;;5078283;28;20089;-80
2021/05/17 11:54:25;;;;;;;0.68;0.10;;;17.90;99.90;;;;;;5097694;28;20131;-81
2021/05/17 11:56:58;;;;;;;4.85;0.30;;;18.20;99.90;;;;;;5098229;28;20086;-79
2021/05/17 11:59:26;;;;;;;0.40;0.35;;;18.40;99.90;;;;;;5097323;28;20044;-78
2021/05/17 12:01:56;;;;;;;0.47;0.10;;;18.60;99.90;;;;;;5097516;28;20051;-81
2021/05/17 12:04:25;;;;;;;0.30;0.20;;;18.70;99.90;;;;;;5096398;28;20087;-81
2021/05/17 12:06:56;;;;;;;0.25;0.20;;;18.90;99.90;;;;;;5095850;28;20151;-80
2021/05/17 12:09:26;;;;;;;0.38;0.13;;;18.80;99.90;;;;;;5077568;28;20040;-80
2021/05/17 12:11:53;;;;;;;1.80;0.20;;;18.90;99.90;;;;;;5077788;28;20044;-80
2021/05/17 12:14:20;;;;;;;3.75;0.30;;;18.90;99.90;;;;;;5095396;28;20072;-80
2021/05/17 12:16:59;;;;;;;0.98;0.20;;;19.00;99.90;;;;;;5077056;28;20491;-80
2021/05/17 12:19:26;;;;;;;2.25;0.30;;;18.70;99.90;;;;;;5077621;28;20132;-80
2021/05/17 12:21:56;;;;;;;2.75;0.20;;;18.60;99.90;;;;;;5096021;28;20048;-79
2021/05/17 12:24:29;;;;;;;2.95;0.30;;;19.00;99.90;;;;;;5077150;28;20090;-81
2021/05/17 12:27:06;;;;;;;1.60;0.35;;;19.10;99.90;;;;;;5096759;28;20048;-79
2021/05/17 12:29:53;;;;;;;2.05;0.20;;;18.60;99.90;;;;;;5094874;28;20134;-80
2021/05/17 12:32:22;;;;;;;1.73;0.10;;;18.50;99.90;;;;;;5077430;28;20083;-79
2021/05/17 12:34:58;;;;;;;0.10;0.10;;;18.30;99.90;;;;;;5077308;28;20500;-80
2021/05/17 12:37:29;;;;;;;3.95;0.82;;;18.20;99.90;;;;;;5094928;28;20099;-78
2021/05/17 12:40:11;;;;;;;0.50;0.30;;;18.10;99.90;;;;;;5077614;28;20136;-80
2021/05/17 12:42:38;;;;;;;4.78;0.40;;;17.80;99.90;;;;;;5077290;28;20086;-78
2021/05/17 12:45:12;;;;;;;0.65;0.20;;;17.70;99.90;;;;;;5077348;28;20047;-81
2021/05/17 12:47:44;;;;;;;0.30;0.20;;;18.10;99.90;;;;;;5094990;28;20478;-79
2021/05/17 12:50:23;;;;;;;2.40;0.60;;;18.20;99.90;;;;;;5095595;28;20051;-79
2021/05/17 12:53:11;;;;;;;1.10;0.30;;;17.90;99.90;;;;;;5077369;28;20130;-80
2021/05/17 12:55:43;;;;;;;3.05;0.20;;;17.50;99.90;;;;;;5077183;28;20055;-80
2021/05/17 12:58:11;;;;;;;2.33;0.30;;;17.10;99.90;;;;;;5095740;28;20083;-80
2021/05/17 13:00:53;;;;;;;2.05;0.30;;;16.50;99.90;;;;;;5094828;28;20051;-81
2021/05/17 13:03:29;;;;;;;1.13;0.35;;;16.30;99.90;;;;;;5077405;28;20412;-81
2021/05/17 13:05:57;;;;;;;0.52;0.30;;;16.20;99.90;;;;;;5096725;28;20091;-79
2021/05/17 13:08:54;;;;;;;19.48;1.08;;;15.90;99.90;;;;;;5080296;28;20076;-81
2021/05/17 13:11:26;;;;;;;0.25;0.10;;;14.70;99.90;;;;;;5096089;28;20073;-80
2021/05/17 13:14:03;;;;;;;1.17;0.40;;;13.20;99.90;;;;;;5079712;28;20424;-80
2021/05/17 13:16:37;;;;;;;2.10;0.38;;;12.20;99.90;;;;;;5079352;28;20052;-81
2021/05/17 13:19:39;;;;;;;1.23;0.40;;;11.50;99.90;;;;;;5098154;28;20413;-80
2021/05/17 13:30:57;;;;;;;0.13;0.10;;;11.10;99.90;;;;;;5099133;28;20051;-82
2021/05/17 13:33:31;;;;;;;2.10;0.20;;;11.60;99.90;;;;;;5080818;28;20076;-82
2021/05/17 13:36:01;;;;;;;0.68;0.40;;;12.30;99.90;;;;;;5098521;28;20048;-82
2021/05/17 13:38:34;;;;;;;2.45;0.40;;;13.00;99.90;;;;;;5079606;28;20051;-82